Airfield :
LOGIN :

Register | Disclaimer

   EN    FR    IT 

 










Legend :    VFR   Marginal VFR   IFR   Intensive IFR   Very Intensive IFR
Visi :
Ceiling :
>= 8 km
>= 3000ft
5 to 8 km
1000 to 3000 ft
1500m to 5 km
500 to 1000 ft
800 to 1500m
200 to 500 ft
< 800m
< 200 ft
Symbols :   Thunderstorms  Fog  Heavy snow  Heavy precipitations  Wind > 20 kt
SIGMETs :     Misc.  Thunderstorms  Icing  Turbulence  Mountain Waves  Volcanic Ashes






- Airport Elevation : 751 ft
- IATA code : ENC


LFSN - Nancy Essey

CURRENT METAR :
  • 230100Z AUTO VRB03KT 9999 BKN011 BKN028 OVC056 03/02 Q1000

EXPIRED METARs :
  • 230030Z AUTO 00000KT 9999 FEW009 BKN048 BKN056 03/01 Q1000
  • 230000Z AUTO 28003KT 240V320 9999 FEW010 BKN044 BKN150 03/02 Q1000
  • 222330Z AUTO 26004KT 230V300 9999 FEW012 BKN044 BKN120 03/02 Q1000
  • 222300Z AUTO 28003KT 240V310 9999 FEW011 OVC120 03/02 Q1000
  • 222230Z AUTO 31005KT 9999 SCT035 BKN070 BKN082 03/02 Q0999

Expired Forecast.



MET'MAP, your aeronautical weather chart ! - Copyright ORBIFLY December 2007 - Disclaimer

ORBIFLY MET'MAP TEAM :

Programming & Development : Alexandra Zaïnal
Concept & original design : Baudouin d'Aumeries
Assistance for programming : Marc-Olivier Méhu
Technical & hardware support : Manuel Goepfert

Contact : metmap@orbifly.com




SOURCES & CREDITS :

   NOAA